Silver Springs, Nevada
Current Conditions -  °F | °C
As of 5:56 AM on Monday 24 Nov 2014 (Local Time) from KNFL Reporting Station
Clear Clear  
Wind Chill: 12°   Ceiling: Unl
Heat Index: 20°   Visibility: 10mi
Dew Point: 15°   Wind: 6mph
Humidity: 81%   Direction: 200°SSW
Pressure: 30.44"   Gusts: NA
Location:  39.42°N, 119.23°W
Report Text: KNFL 241356Z AUTO 20005KT 10SM CLR M07/M09 A3044 RMK AO2 SLP262 T10671094
Loading
Personal Weather Stations






























Interactive Weather Map New forecast layout! Learn more

10-Day Weather Forecast

Advertisements
Track Severe Weather on mobile